createdAt,value
2023-07-29T00:18:59.079Z,0.78
2023-07-29T00:30:52.718Z,2
2023-07-29T00:34:55.862Z,0.26
2023-07-29T00:50:53.850Z,1.08
2023-07-29T01:01:32.023Z,1.1
2023-07-29T01:06:51.057Z,0.8
2023-07-29T01:28:07.742Z,0.84
2023-07-29T01:38:45.796Z,0.96
2023-07-29T01:44:05.110Z,1.28
2023-07-29T01:54:43.431Z,0
2023-07-29T02:10:40.766Z,1.16
2023-07-29T02:21:18.730Z,1.28
2023-07-29T02:26:38.663Z,1.46
2023-07-29T02:37:15.842Z,1.32
2023-07-29T02:53:14.443Z,1.2
2023-07-29T03:03:52.817Z,0.34
2023-07-29T03:09:12.539Z,0.64
2023-07-29T03:19:49.490Z,0.78
2023-07-29T03:35:48.143Z,0.86
2023-07-29T03:46:25.911Z,0
2023-07-29T03:51:44.483Z,0.56
2023-07-29T04:02:22.909Z,0
2023-07-29T04:18:21.415Z,0.8
2023-07-29T04:34:18.372Z,0
2023-07-29T04:44:56.192Z,0.78
2023-07-29T04:50:15.547Z,1.26
2023-07-29T05:00:55.280Z,0.88
2023-07-29T05:16:52.618Z,1.9
2023-07-29T05:27:31.056Z,0.8
2023-07-29T05:32:51.050Z,1.9
2023-07-29T05:38:45.673Z,0.82
2023-07-29T05:49:24.265Z,1.05
2023-07-29T06:05:22.450Z,1.5
2023-07-29T06:21:19.202Z,0.96
2023-07-29T06:31:55.733Z,2.2
2023-07-29T06:47:54.690Z,0.8
2023-07-29T07:03:51.438Z,1.12
2023-07-29T07:14:31.224Z,0.76
2023-07-29T07:30:28.224Z,0.2
2023-07-29T07:46:26.565Z,0.72
2023-07-29T07:57:05.975Z,0.42
2023-07-29T08:07:42.739Z,0
2023-07-29T08:19:36.471Z,0
2023-07-29T08:23:51.882Z,1.16
2023-07-29T08:39:38.404Z,3.5
2023-07-29T08:46:12.532Z,2.98
2023-07-29T08:55:37.380Z,4.54
2023-07-29T09:04:10.488Z,2.82
2023-07-29T09:06:14.778Z,7.2
2023-07-29T09:22:12.644Z,3.44
2023-07-29T09:34:29.329Z,5.44
2023-07-29T09:48:45.944Z,1.94
2023-07-29T10:04:43.760Z,3.96
2023-07-29T10:16:38.054Z,1.92
2023-07-29T10:20:41.717Z,2.56
2023-07-29T10:31:19.296Z,3.3
2023-07-29T11:01:11.381Z,2.88
2023-07-29T11:09:44.436Z,5.6
2023-07-29T11:19:12.909Z,4.26
2023-07-29T11:29:51.299Z,4.1
2023-07-29T11:45:51.987Z,3.08
2023-07-29T12:01:44.606Z,5.52
2023-07-29T12:12:22.560Z,5.04
2023-07-29T12:17:41.726Z,7.4
2023-07-29T12:28:20.507Z,3.7
2023-07-29T12:44:17.153Z,14.08
2023-07-29T13:00:14.397Z,8.93
2023-07-29T13:10:52.549Z,9.88
2023-07-29T13:16:12.196Z,7.48
2023-07-29T13:26:50.340Z,5.14
2023-07-29T13:42:47.744Z,6.48
2023-07-29T13:53:26.099Z,8.88
2023-07-29T13:58:44.894Z,10.56
2023-07-29T14:09:23.745Z,6.34
2023-07-29T14:25:20.571Z,6.14
2023-07-29T14:41:18.482Z,7.16
2023-07-29T14:46:38.610Z,10.58
2023-07-29T14:51:56.407Z,7.56
2023-07-29T15:02:35.676Z,4.94
2023-07-29T15:18:32.674Z,6.46
2023-07-29T15:29:11.693Z,7.68
2023-07-29T15:34:30.842Z,7.66
2023-07-29T15:45:09.325Z,9.88
2023-07-29T16:01:07.265Z,5.8
2023-07-29T16:17:04.647Z,6.28
2023-07-29T16:27:42.643Z,8.1
2023-07-29T16:33:02.127Z,4.21
2023-07-29T16:43:39.935Z,4.32
2023-07-29T16:59:39.063Z,4.52
2023-07-29T17:15:35.456Z,4.66
2023-07-29T17:26:13.417Z,6.74
2023-07-29T17:42:10.393Z,2.86
2023-07-29T17:58:06.901Z,5.42
2023-07-29T18:08:45.745Z,2.72
2023-07-29T18:14:05.186Z,4
2023-07-29T18:24:44.260Z,0.86
2023-07-29T18:40:42.466Z,0.42
2023-07-29T18:51:18.989Z,0.58
2023-07-29T18:56:39.001Z,1.34
2023-07-29T19:07:16.731Z,1.62
2023-07-29T19:23:15.170Z,2.98
2023-07-29T19:33:52.197Z,1.54
2023-07-29T19:39:11.730Z,1.52
2023-07-29T19:49:50.563Z,0.4
2023-07-29T19:55:10.080Z,0
2023-07-29T20:05:49.678Z,0.96
2023-07-29T20:21:47.289Z,0.82
2023-07-29T20:32:25.897Z,2.2
2023-07-29T20:37:44.618Z,0
2023-07-29T20:48:22.668Z,0.74
2023-07-29T21:04:19.483Z,1.04
2023-07-29T21:14:57.266Z,0.28
2023-07-29T21:20:16.942Z,0.88
2023-07-29T21:41:34.135Z,1.84
2023-07-29T21:57:32.732Z,0.92
2023-07-29T22:08:11.449Z,1.12
2023-07-29T22:13:29.391Z,1.6
2023-07-29T22:24:07.691Z,0.26
2023-07-29T22:40:04.891Z,0
2023-07-29T22:50:43.792Z,1.46
2023-07-29T22:56:03.714Z,0.88
2023-07-29T23:06:41.599Z,0.98
2023-07-29T23:22:38.269Z,1.32
2023-07-29T23:33:16.213Z,2.52
2023-07-29T23:39:01.793Z,1.86
2023-07-29T23:54:59.206Z,0
